Kota Waris — S6RJ — position and weather

sailwx.info

Track history (hours):
 
Tides and Currents Weather Stations Pressure Air Temp Water Temp Dewpoint Dewpoint Depression Visibility Wind Speed Wind Dir Waves Ship Positions

Kota Waris

Last reported at 2016-Jul-25 18:34 UTC. Time now 2016-Jul-28 14:29 UTC.
Position N 01°16' E 104°08'.

Length 185 m; draft 8.7 m.

Type: Cargo ship. MMSI: 564482000.

Date/timePositionNaut miles runAvg speedWind from/ knotsBaromVisibWave heightAir tempDewpointWater temp
2016-Jul-25 18:34N 01°16' E 104°08'1413.9
2016-Jul-25 17:33N 01°13' E 103°54'5 5.1
2016-Jul-25 16:31N 01°16' E 103°50'0 0.0
2016-Jul-25 15:28N 01°16' E 103°50'0 0.0
2016-Jul-25 14:28N 01°16' E 103°50'0 0.0
2016-Jul-25 13:28N 01°16' E 103°50'0 0.0
2016-Jul-25 12:28N 01°16' E 103°50'0 0.0
2016-Jul-25 11:29N 01°16' E 103°50'0 0.0
2016-Jul-25 10:28N 01°16' E 103°50'0 0.0
2016-Jul-25 09:31N 01°16' E 103°50'0 0.0
2016-Jul-25 08:31N 01°16' E 103°50'0 0.0
2016-Jul-25 07:31N 01°16' E 103°50'0 0.0
2016-Jul-25 06:31N 01°16' E 103°50'0 0.0
2016-Jul-25 05:28N 01°16' E 103°50'0 0.0
2016-Jul-25 04:31N 01°16' E 103°50'0 0.0
2016-Jul-25 03:31N 01°16' E 103°50'0 0.0
2016-Jul-25 02:31N 01°16' E 103°50'0 0.0
2016-Jul-25 01:23N 01°16' E 103°50'0 0.0
2016-Jul-25 00:28N 01°16' E 103°50'0 0.0
2016-Jul-24 23:28N 01°16' E 103°50'0 0.0
2016-Jul-24 22:28N 01°16' E 103°50'0 0.0
2016-Jul-24 21:28N 01°16' E 103°50'0 0.0
2016-Jul-24 20:29N 01°16' E 103°50'0 0.0
2016-Jul-24 19:29N 01°16' E 103°50'0 0.0
2016-Jul-24 18:29N 01°16' E 103°50'3 2.6
2016-Jul-24 17:23N 01°15' E 103°53'0 0.1
2016-Jul-24 16:14N 01°15' E 103°53'0 0.0
2016-Jul-24 15:29N 01°15' E 103°53'0 0.0
2016-Jul-24 14:29N 01°15' E 103°53'0 0.0
2016-Jul-24 13:29N 01°15' E 103°53'0 0.0
2016-Jul-24 12:29N 01°15' E 103°53'0 0.0
2016-Jul-24 11:23N 01°15' E 103°53'0 0.1
2016-Jul-24 10:17N 01°15' E 103°53'0 0.1
2016-Jul-24 09:29N 01°15' E 103°53'0 0.1
2016-Jul-24 08:23N 01°15' E 103°53'0 0.3
2016-Jul-24 07:29N 01°15' E 103°53'2 1.7
2016-Jul-24 06:33N 01°13' E 103°52'3 2.7
2016-Jul-24 05:33N 01°13' E 103°49'0 0.2
2016-Jul-24 04:30N 01°13' E 103°50'0 0.2
2016-Jul-24 03:33N 01°13' E 103°50'8 7.7
2016-Jul-24 02:34N 01°15' E 103°57'  
Track history (hours):
 
Tides and Currents Weather Stations Pressure Air Temp Water Temp Dewpoint Dewpoint Depression Visibility Wind Speed Wind Dir Waves Ship Positions

Kota Waris

Last reported at 2016-Jul-25 18:34 UTC. Time now 2016-Jul-28 14:29 UTC.
Position N 01°16' E 104°08'.

Length 185 m; draft 8.7 m.

Type: Cargo ship. MMSI: 564482000.

Date/timePositionNaut miles runAvg speedWind from/ knotsBaromVisibWave heightAir tempDewpointWater temp
2016-Jul-25 18:34N 01°16' E 104°08'1413.9
2016-Jul-25 17:33N 01°13' E 103°54'5 5.1
2016-Jul-25 16:31N 01°16' E 103°50'0 0.0
2016-Jul-25 15:28N 01°16' E 103°50'0 0.0
2016-Jul-25 14:28N 01°16' E 103°50'0 0.0
2016-Jul-25 13:28N 01°16' E 103°50'0 0.0
2016-Jul-25 12:28N 01°16' E 103°50'0 0.0
2016-Jul-25 11:29N 01°16' E 103°50'0 0.0
2016-Jul-25 10:28N 01°16' E 103°50'0 0.0
2016-Jul-25 09:31N 01°16' E 103°50'0 0.0
2016-Jul-25 08:31N 01°16' E 103°50'0 0.0
2016-Jul-25 07:31N 01°16' E 103°50'0 0.0
2016-Jul-25 06:31N 01°16' E 103°50'0 0.0
2016-Jul-25 05:28N 01°16' E 103°50'0 0.0
2016-Jul-25 04:31N 01°16' E 103°50'0 0.0
2016-Jul-25 03:31N 01°16' E 103°50'0 0.0
2016-Jul-25 02:31N 01°16' E 103°50'0 0.0
2016-Jul-25 01:23N 01°16' E 103°50'0 0.0
2016-Jul-25 00:28N 01°16' E 103°50'0 0.0
2016-Jul-24 23:28N 01°16' E 103°50'0 0.0
2016-Jul-24 22:28N 01°16' E 103°50'0 0.0
2016-Jul-24 21:28N 01°16' E 103°50'0 0.0
2016-Jul-24 20:29N 01°16' E 103°50'0 0.0
2016-Jul-24 19:29N 01°16' E 103°50'0 0.0
2016-Jul-24 18:29N 01°16' E 103°50'3 2.6
2016-Jul-24 17:23N 01°15' E 103°53'0 0.1
2016-Jul-24 16:14N 01°15' E 103°53'0 0.0
2016-Jul-24 15:29N 01°15' E 103°53'0 0.0
2016-Jul-24 14:29N 01°15' E 103°53'0 0.0
2016-Jul-24 13:29N 01°15' E 103°53'0 0.0
2016-Jul-24 12:29N 01°15' E 103°53'0 0.0
2016-Jul-24 11:23N 01°15' E 103°53'0 0.1
2016-Jul-24 10:17N 01°15' E 103°53'0 0.1
2016-Jul-24 09:29N 01°15' E 103°53'0 0.1
2016-Jul-24 08:23N 01°15' E 103°53'0 0.3
2016-Jul-24 07:29N 01°15' E 103°53'2 1.7
2016-Jul-24 06:33N 01°13' E 103°52'3 2.7
2016-Jul-24 05:33N 01°13' E 103°49'0 0.2
2016-Jul-24 04:30N 01°13' E 103°50'0 0.2
2016-Jul-24 03:33N 01°13' E 103°50'8 7.7
2016-Jul-24 02:34N 01°15' E 103°57'  

Dump ship's entire track history